Time;durP1;ratioP1;P1;durP2;ratioP2;P2;SDS_P1;SDS_P2;PMS_P1;PMS_P2;Temp;Humidity;BMP_temperature;BMP_pressure;BME280_temperature;BME280_humidity;BME280_pressure;Samples;Min_cycle;Max_cycle;Signal;HPM_P1;HPM_P2
2022/04/02 00:01:39;;;;;;;4.07;1.00;;;3.70;99.90;;;;;;5053625;28;20025;-36
2022/04/02 00:04:09;;;;;;;1.67;1.08;;;3.70;99.90;;;;;;5052946;28;20028;-36
2022/04/02 00:06:35;;;;;;;1.98;0.95;;;3.70;99.90;;;;;;5053188;28;20033;-37
2022/04/02 00:09:02;;;;;;;6.07;1.60;;;3.70;99.90;;;;;;5059328;28;20041;-36
2022/04/02 00:11:28;;;;;;;6.05;1.27;;;3.60;99.90;;;;;;5073366;28;20552;-36
2022/04/02 00:13:53;;;;;;;3.22;0.77;;;3.60;99.90;;;;;;5073306;28;20059;-38
2022/04/02 00:16:19;;;;;;;5.25;0.90;;;3.60;99.90;;;;;;5073148;28;20103;-37
2022/04/02 00:18:45;;;;;;;4.35;1.10;;;3.60;99.90;;;;;;5073127;28;20032;-38
2022/04/02 00:21:11;;;;;;;2.33;0.88;;;3.50;99.90;;;;;;5072895;28;20052;-59
2022/04/02 00:23:40;;;;;;;3.83;0.82;;;3.50;99.90;;;;;;5073231;28;20450;-37
2022/04/02 00:26:10;;;;;;;1.42;1.02;;;3.60;99.90;;;;;;5073076;28;20017;-37
2022/04/02 00:28:37;;;;;;;5.20;0.90;;;3.50;99.90;;;;;;5072780;28;20029;-37
2022/04/02 00:31:04;;;;;;;2.33;0.77;;;3.50;99.90;;;;;;5072605;28;20093;-33
2022/04/02 00:33:30;;;;;;;4.75;0.75;;;3.50;99.90;;;;;;5072729;28;20033;-30
2022/04/02 00:35:56;;;;;;;1.88;1.30;;;3.50;99.90;;;;;;5054082;28;20484;-31
2022/04/02 00:38:22;;;;;;;1.77;0.85;;;3.50;99.90;;;;;;5073074;28;20146;-45
2022/04/02 00:40:47;;;;;;;7.13;1.00;;;3.50;99.90;;;;;;5072942;28;20070;-36
2022/04/02 00:43:27;;;;;;;1.67;1.00;;;3.50;99.90;;;;;;5072932;28;20033;-38
2022/04/02 00:45:54;;;;;;;1.13;0.93;;;3.50;99.90;;;;;;5073245;28;20047;-38
2022/04/02 00:48:21;;;;;;;1.98;1.17;;;3.50;99.90;;;;;;5075482;28;20039;-32
2022/04/02 00:50:52;;;;;;;3.10;1.95;;;3.40;99.90;;;;;;5076658;28;20032;-29
2022/04/02 00:53:18;;;;;;;1.92;1.10;;;3.50;99.90;;;;;;5076006;28;20052;-33
2022/04/02 00:55:45;;;;;;;1.13;0.90;;;3.40;99.90;;;;;;5076940;28;20057;-28
2022/04/02 00:58:11;;;;;;;1.60;0.77;;;3.40;99.90;;;;;;5076576;28;20033;-30
2022/04/02 01:00:40;;;;;;;4.82;0.98;;;3.40;99.90;;;;;;5076460;28;20476;-29
2022/04/02 01:03:07;;;;;;;1.98;1.13;;;3.40;99.90;;;;;;5076949;28;20423;-28
2022/04/02 01:05:37;;;;;;;1.15;1.05;;;3.40;99.90;;;;;;5076776;28;20024;-29
2022/04/02 01:08:05;;;;;;;8.20;1.40;;;3.40;99.90;;;;;;5067598;28;20532;-34
2022/04/02 01:10:32;;;;;;;1.25;0.80;;;3.30;99.90;;;;;;5075993;28;20038;-28
2022/04/02 01:12:58;;;;;;;5.13;1.23;;;3.30;99.90;;;;;;5076018;28;20071;-30
2022/04/02 01:15:24;;;;;;;2.20;0.93;;;3.30;99.90;;;;;;5076408;28;20048;-30
2022/04/02 01:17:50;;;;;;;2.42;1.05;;;3.20;99.90;;;;;;5076361;28;20067;-29
2022/04/02 01:20:17;;;;;;;2.13;0.98;;;3.20;99.90;;;;;;5075864;28;20048;-35
2022/04/02 01:22:43;;;;;;;2.35;1.08;;;3.20;99.90;;;;;;5075953;28;20016;-29
2022/04/02 01:25:09;;;;;;;1.17;0.80;;;3.10;99.90;;;;;;5058350;28;20047;-35
2022/04/02 01:27:34;;;;;;;1.17;1.00;;;3.10;99.90;;;;;;5075982;28;20031;-38
2022/04/02 01:30:00;;;;;;;2.50;1.10;;;3.10;99.90;;;;;;5075384;28;20484;-59
2022/04/02 01:32:26;;;;;;;1.67;1.25;;;3.00;99.90;;;;;;5076131;28;20077;-46
2022/04/02 01:34:51;;;;;;;3.60;1.48;;;2.90;99.90;;;;;;5075990;28;20073;-37
2022/04/02 01:37:17;;;;;;;1.02;0.88;;;2.90;99.90;;;;;;5075624;28;20032;-37
2022/04/02 01:39:43;;;;;;;2.78;1.00;;;3.00;99.90;;;;;;5075735;28;20020;-37
2022/04/02 01:42:09;;;;;;;5.25;0.85;;;3.00;99.90;;;;;;5060090;28;20123;-38
2022/04/02 01:44:35;;;;;;;1.70;1.15;;;3.10;99.90;;;;;;5075692;28;20044;-36
2022/04/02 01:47:02;;;;;;;1.98;1.02;;;3.00;99.90;;;;;;5062233;28;20021;-36
2022/04/02 01:49:27;;;;;;;2.50;1.20;;;3.00;99.90;;;;;;5075625;28;20431;-36
2022/04/02 01:51:53;;;;;;;0.75;0.65;;;3.00;99.90;;;;;;5075647;28;20082;-37
2022/04/02 01:54:20;;;;;;;2.33;1.10;;;3.00;99.90;;;;;;5075655;28;20024;-37
2022/04/02 01:56:47;;;;;;;1.52;0.73;;;3.00;99.90;;;;;;5072216;28;20155;-37
2022/04/02 01:59:14;;;;;;;1.50;0.70;;;3.00;99.90;;;;;;5058087;28;20037;-36
2022/04/02 02:01:40;;;;;;;1.55;1.08;;;2.90;99.90;;;;;;5075053;28;20024;-37
2022/04/02 02:04:06;;;;;;;1.98;1.23;;;2.90;99.90;;;;;;5075507;28;20563;-37
2022/04/02 02:06:33;;;;;;;1.02;0.80;;;2.90;99.90;;;;;;5073917;28;20090;-37
2022/04/02 02:08:59;;;;;;;2.67;1.13;;;2.90;99.90;;;;;;5060217;28;20094;-33
2022/04/02 02:11:25;;;;;;;6.63;1.30;;;2.90;99.90;;;;;;5075134;28;20392;-30
2022/04/02 02:13:51;;;;;;;1.70;0.80;;;2.90;99.90;;;;;;5075138;28;20033;-29
2022/04/02 02:16:18;;;;;;;2.33;1.38;;;2.80;99.90;;;;;;5074250;28;20081;-36
2022/04/02 02:18:43;;;;;;;1.13;0.88;;;2.90;99.90;;;;;;5075007;28;20033;-30
2022/04/02 02:21:09;;;;;;;4.70;1.77;;;2.90;99.90;;;;;;5075289;28;20031;-30
2022/04/02 02:23:35;;;;;;;5.22;1.25;;;2.80;99.90;;;;;;5074921;28;20059;-35
2022/04/02 02:26:01;;;;;;;1.38;0.80;;;2.90;99.90;;;;;;5074362;28;20070;-30
2022/04/02 02:28:26;;;;;;;7.13;1.20;;;2.90;99.90;;;;;;5071830;28;20036;-29
2022/04/02 02:30:53;;;;;;;1.90;1.02;;;2.90;99.90;;;;;;5075056;28;20129;-33
2022/04/02 02:36:03;;;;;;;2.70;1.15;;;2.90;99.90;;;;;;5075004;28;20036;-30
2022/04/02 02:38:28;;;;;;;2.35;0.90;;;2.80;99.90;;;;;;5058492;28;20041;-29
2022/04/02 02:40:54;;;;;;;0.80;0.80;;;2.80;99.90;;;;;;5074852;28;20032;-28
2022/04/02 02:43:20;;;;;;;2.67;1.10;;;2.80;99.90;;;;;;5058264;28;20041;-31
2022/04/02 02:45:46;;;;;;;1.05;0.68;;;2.80;99.90;;;;;;5074494;28;20025;-29
2022/04/02 02:48:12;;;;;;;1.13;1.00;;;2.70;99.90;;;;;;5074839;28;20466;-29
2022/04/02 02:50:38;;;;;;;1.10;1.00;;;2.70;99.90;;;;;;5074551;28;20115;-29
2022/04/02 02:53:03;;;;;;;1.58;1.20;;;2.80;99.90;;;;;;5074559;28;20025;-35
2022/04/02 02:55:29;;;;;;;0.98;0.85;;;2.80;99.90;;;;;;5074662;28;20436;-29
2022/04/02 02:57:55;;;;;;;0.85;0.73;;;2.70;99.90;;;;;;5074538;28;20029;-38
2022/04/02 03:00:21;;;;;;;2.10;1.30;;;2.70;99.90;;;;;;5074833;28;20009;-38
2022/04/02 03:02:47;;;;;;;2.58;1.38;;;2.70;99.90;;;;;;5074452;28;20488;-38
2022/04/02 03:05:15;;;;;;;5.63;1.15;;;2.60;99.90;;;;;;5074466;28;20048;-37
2022/04/02 03:07:48;;;;;;;1.02;0.93;;;2.60;99.90;;;;;;5074416;28;20492;-37
2022/04/02 03:10:17;;;;;;;3.25;1.13;;;2.60;99.90;;;;;;5073309;28;20119;-36
2022/04/02 03:12:45;;;;;;;1.23;0.90;;;2.60;99.90;;;;;;5074214;28;20034;-38
2022/04/02 03:15:11;;;;;;;1.52;0.85;;;2.50;99.90;;;;;;5074279;28;20055;-37
2022/04/02 03:17:37;;;;;;;3.17;1.30;;;2.50;99.90;;;;;;5074142;28;20041;-37
2022/04/02 03:20:04;;;;;;;0.85;0.70;;;2.60;99.90;;;;;;5074224;28;20107;-37
2022/04/02 03:22:34;;;;;;;0.90;0.73;;;2.60;99.90;;;;;;5074415;28;20380;-36
2022/04/02 03:25:01;;;;;;;1.40;1.00;;;2.60;99.90;;;;;;5074100;28;20016;-36
2022/04/02 03:27:27;;;;;;;1.80;1.02;;;2.60;99.90;;;;;;5074028;28;20031;-37
2022/04/02 03:29:53;;;;;;;1.90;1.13;;;2.50;99.90;;;;;;5055723;28;20385;-38
2022/04/02 03:32:19;;;;;;;1.55;0.98;;;2.50;99.90;;;;;;5056096;28;20029;-38
2022/04/02 03:34:44;;;;;;;2.10;1.10;;;2.50;99.90;;;;;;5073849;28;20070;-43
2022/04/02 03:37:10;;;;;;;2.13;0.90;;;2.50;99.90;;;;;;5073652;28;20023;-38
2022/04/02 03:39:35;;;;;;;1.17;0.90;;;2.50;99.90;;;;;;5073582;28;20483;-35
2022/04/02 03:42:01;;;;;;;1.23;0.90;;;2.50;99.90;;;;;;5073641;28;20021;-36
2022/04/02 03:44:27;;;;;;;2.05;1.10;;;2.50;99.90;;;;;;5073392;28;20028;-37
2022/04/02 03:47:11;;;;;;;1.42;1.10;;;2.40;99.90;;;;;;5061595;28;20365;-37
2022/04/02 03:49:38;;;;;;;4.22;0.80;;;2.40;99.90;;;;;;5073358;28;20138;-36
2022/04/02 03:52:05;;;;;;;2.15;1.08;;;2.40;99.90;;;;;;5073246;28;20499;-36
2022/04/02 03:54:30;;;;;;;0.98;0.65;;;2.40;99.90;;;;;;5069131;28;20036;-40
2022/04/02 03:56:56;;;;;;;1.80;0.80;;;2.40;99.90;;;;;;5073169;28;20571;-38
2022/04/02 03:59:22;;;;;;;1.15;1.05;;;2.40;99.90;;;;;;5073204;28;20060;-38
2022/04/02 04:01:48;;;;;;;1.90;1.08;;;2.40;99.90;;;;;;5073030;28;20060;-35
2022/04/02 04:04:13;;;;;;;2.35;1.30;;;2.30;99.90;;;;;;5073158;28;20111;-36
2022/04/02 04:06:39;;;;;;;4.72;1.02;;;2.30;99.90;;;;;;5073408;28;20091;-37
2022/04/02 04:09:05;;;;;;;1.05;0.65;;;2.30;99.90;;;;;;5072979;28;20045;-31
2022/04/02 04:11:30;;;;;;;1.08;0.95;;;2.30;99.90;;;;;;5073129;28;20040;-30
2022/04/02 04:13:59;;;;;;;4.13;1.10;;;2.30;99.90;;;;;;5073216;28;20024;-30
2022/04/02 04:16:24;;;;;;;1.10;1.02;;;2.30;99.90;;;;;;5073186;28;20037;-32
2022/04/02 04:18:50;;;;;;;1.65;1.00;;;2.30;99.90;;;;;;5072840;28;20037;-37
2022/04/02 04:21:17;;;;;;;3.42;1.20;;;2.30;99.90;;;;;;5072836;28;20035;-32
2022/04/02 04:23:43;;;;;;;1.75;1.02;;;2.30;99.90;;;;;;5054206;28;20040;-32
2022/04/02 04:26:09;;;;;;;1.70;0.93;;;2.20;99.90;;;;;;5073049;28;20028;-35
2022/04/02 04:28:36;;;;;;;1.92;0.93;;;2.30;99.90;;;;;;5072376;28;20024;-29
2022/04/02 04:31:02;;;;;;;3.00;1.02;;;2.20;99.90;;;;;;5072889;28;20025;-32
2022/04/02 04:33:28;;;;;;;1.92;1.10;;;2.20;99.90;;;;;;5073210;28;20101;-30
2022/04/02 04:35:54;;;;;;;1.48;0.93;;;2.20;99.90;;;;;;5073217;28;20024;-31
2022/04/02 04:38:19;;;;;;;1.63;1.27;;;2.20;99.90;;;;;;5072830;28;20463;-29
2022/04/02 04:40:45;;;;;;;3.53;1.30;;;2.20;99.90;;;;;;5072985;28;20077;-36
2022/04/02 04:43:10;;;;;;;3.35;0.90;;;2.20;99.90;;;;;;5072928;28;20504;-31
2022/04/02 04:45:36;;;;;;;1.80;0.98;;;2.20;99.90;;;;;;5072898;28;20154;-34
2022/04/02 04:48:02;;;;;;;1.38;0.98;;;2.10;99.90;;;;;;5054618;28;20020;-44
2022/04/02 04:50:27;;;;;;;1.13;0.93;;;2.10;99.90;;;;;;5072809;28;20029;-36
2022/04/02 04:52:53;;;;;;;4.05;1.40;;;2.10;99.90;;;;;;5072337;28;20040;-33
2022/04/02 04:55:19;;;;;;;1.38;1.27;;;2.10;99.90;;;;;;5072637;28;20033;-29
2022/04/02 04:57:44;;;;;;;1.85;1.00;;;2.10;99.90;;;;;;5066244;28;20033;-38
2022/04/02 05:00:11;;;;;;;0.88;0.70;;;2.10;99.90;;;;;;5053918;28;20029;-37
2022/04/02 05:02:36;;;;;;;1.70;1.17;;;2.10;99.90;;;;;;5072650;28;20059;-38
2022/04/02 05:05:02;;;;;;;4.43;1.25;;;2.10;99.90;;;;;;5072512;28;20044;-35
2022/04/02 05:07:29;;;;;;;3.45;1.20;;;2.10;99.90;;;;;;5072773;28;20032;-37
2022/04/02 05:09:55;;;;;;;5.45;1.20;;;2.10;99.90;;;;;;5072127;28;20442;-36
2022/04/02 05:12:21;;;;;;;4.57;1.33;;;2.10;99.90;;;;;;5057502;28;20025;-35
2022/04/02 05:14:49;;;;;;;5.82;1.30;;;2.10;99.90;;;;;;5052634;28;20032;-37
2022/04/02 05:17:16;;;;;;;5.25;0.95;;;2.10;99.90;;;;;;5052594;28;20364;-36
2022/04/02 05:19:42;;;;;;;2.03;1.10;;;2.10;99.90;;;;;;5052426;28;20025;-29
2022/04/02 05:22:10;;;;;;;3.22;1.00;;;2.10;99.90;;;;;;5069998;28;20032;-29
2022/04/02 05:24:37;;;;;;;1.92;1.08;;;2.10;99.90;;;;;;5072582;28;20017;-32
2022/04/02 05:27:03;;;;;;;2.10;1.30;;;2.10;99.90;;;;;;5072793;28;20380;-40
2022/04/02 05:29:29;;;;;;;2.58;1.15;;;2.10;99.90;;;;;;5072534;28;20029;-32
2022/04/02 05:31:55;;;;;;;1.70;1.15;;;2.10;99.90;;;;;;5072443;28;20055;-31
2022/04/02 05:34:21;;;;;;;7.50;1.45;;;2.20;99.90;;;;;;5074631;28;20033;-31
2022/04/02 05:36:46;;;;;;;9.48;1.60;;;2.20;99.90;;;;;;5076145;28;20032;-33
2022/04/02 05:39:12;;;;;;;1.65;0.98;;;2.30;99.90;;;;;;5076080;28;20032;-30
2022/04/02 05:41:37;;;;;;;1.90;1.02;;;2.30;99.90;;;;;;5076162;28;20058;-29
2022/04/02 05:44:05;;;;;;;1.65;1.05;;;2.30;99.90;;;;;;5057516;28;20540;-45
2022/04/02 05:46:31;;;;;;;6.30;2.03;;;2.40;99.90;;;;;;5076063;28;20028;-36
2022/04/02 05:48:58;;;;;;;5.72;1.40;;;2.40;99.90;;;;;;5076001;28;20036;-35
2022/04/02 05:51:23;;;;;;;1.30;1.00;;;2.50;99.90;;;;;;5075821;28;20029;-35
2022/04/02 05:53:49;;;;;;;2.50;1.30;;;2.50;99.90;;;;;;5076183;28;20047;-37
2022/04/02 05:56:15;;;;;;;3.10;1.23;;;2.60;99.90;;;;;;5057933;28;20377;-39
2022/04/02 05:58:41;;;;;;;4.68;1.33;;;2.50;99.90;;;;;;5075747;28;20040;-36
2022/04/02 06:01:07;;;;;;;2.58;1.38;;;2.50;99.90;;;;;;5075365;28;20511;-30
2022/04/02 06:03:33;;;;;;;5.88;1.40;;;2.60;99.90;;;;;;5075822;28;20070;-30
2022/04/02 06:05:58;;;;;;;2.10;0.98;;;2.70;99.90;;;;;;5076036;28;20029;-34
2022/04/02 06:08:24;;;;;;;5.03;1.50;;;2.90;99.90;;;;;;5057367;28;20496;-36
2022/04/02 06:10:50;;;;;;;3.35;1.50;;;2.90;99.90;;;;;;5074936;28;20120;-52
2022/04/02 06:13:15;;;;;;;2.65;1.45;;;2.90;99.90;;;;;;5075013;28;20111;-36
2022/04/02 06:15:41;;;;;;;1.23;1.13;;;3.00;99.90;;;;;;5064480;28;20024;-38
2022/04/02 06:18:07;;;;;;;2.20;1.10;;;3.00;99.90;;;;;;5072584;28;20089;-36
2022/04/02 06:20:33;;;;;;;6.13;1.25;;;3.00;99.90;;;;;;5069219;28;20033;-36
2022/04/02 06:22:59;;;;;;;5.25;1.90;;;3.00;99.90;;;;;;5058947;28;20024;-33
2022/04/02 06:25:25;;;;;;;1.67;1.27;;;2.90;99.90;;;;;;5075470;28;20027;-33
2022/04/02 06:27:52;;;;;;;2.10;1.25;;;2.90;99.90;;;;;;5074910;28;20033;-33
2022/04/02 06:30:19;;;;;;;2.67;1.50;;;2.90;99.90;;;;;;5075210;28;20473;-30
2022/04/02 06:32:45;;;;;;;2.42;1.38;;;2.90;99.90;;;;;;5075190;28;20040;-32
2022/04/02 06:35:11;;;;;;;1.73;1.40;;;3.00;99.90;;;;;;5075172;28;20033;-32
2022/04/02 06:37:40;;;;;;;1.65;1.25;;;3.00;99.90;;;;;;5075202;28;20423;-31
2022/04/02 06:40:09;;;;;;;4.45;1.80;;;3.10;99.90;;;;;;5075020;28;20029;-32
2022/04/02 06:42:35;;;;;;;3.92;2.17;;;3.20;99.90;;;;;;5075308;28;20498;-32
2022/04/02 06:45:02;;;;;;;2.72;1.20;;;3.20;99.90;;;;;;5073895;28;20094;-29
2022/04/02 06:47:32;;;;;;;1.58;1.13;;;3.30;99.90;;;;;;5074868;28;20032;-33
2022/04/02 06:50:01;;;;;;;2.45;1.17;;;3.40;99.90;;;;;;5074885;28;20035;-34
2022/04/02 06:52:27;;;;;;;5.53;1.60;;;3.40;99.90;;;;;;5074788;28;20032;-30
2022/04/02 06:54:53;;;;;;;3.65;1.45;;;3.50;99.90;;;;;;5075054;28;20031;-35
2022/04/02 06:57:22;;;;;;;1.95;1.80;;;3.50;99.90;;;;;;5074754;28;20081;-30
2022/04/02 06:59:48;;;;;;;1.35;0.90;;;3.60;99.90;;;;;;5074631;28;20042;-32
2022/04/02 07:02:19;;;;;;;1.73;1.00;;;3.60;99.90;;;;;;5074449;28;20156;-32
2022/04/02 07:04:46;;;;;;;5.72;1.52;;;3.60;99.90;;;;;;5057796;28;20052;-31
2022/04/02 07:07:12;;;;;;;3.42;1.30;;;3.60;99.90;;;;;;5074422;28;20484;-30
2022/04/02 07:09:38;;;;;;;1.40;1.25;;;3.80;99.90;;;;;;5074105;28;20052;-31
2022/04/02 07:12:05;;;;;;;1.48;1.10;;;3.80;99.90;;;;;;5074252;28;20519;-34
2022/04/02 07:14:32;;;;;;;4.05;0.73;;;3.90;99.90;;;;;;5074406;28;20043;-32
2022/04/02 07:16:57;;;;;;;2.90;1.23;;;4.00;99.90;;;;;;5074274;28;20392;-46
2022/04/02 07:19:25;;;;;;;6.78;1.33;;;4.00;99.90;;;;;;5074049;28;20115;-36
2022/04/02 07:21:52;;;;;;;2.40;1.63;;;4.10;99.90;;;;;;5088746;28;20024;-37
2022/04/02 07:24:19;;;;;;;1.85;1.52;;;4.20;99.90;;;;;;5094542;28;20549;-36
2022/04/02 07:26:46;;;;;;;1.65;1.23;;;4.20;99.90;;;;;;5094061;28;20413;-31
2022/04/02 07:29:14;;;;;;;4.60;1.65;;;4.40;99.90;;;;;;5086515;28;20028;-35
2022/04/02 07:31:42;;;;;;;3.63;1.50;;;4.40;99.90;;;;;;5086656;28;20028;-29
2022/04/02 07:34:07;;;;;;;4.17;1.20;;;4.50;99.90;;;;;;5072260;28;20029;-31
2022/04/02 07:36:33;;;;;;;2.85;1.40;;;4.50;99.90;;;;;;5073867;28;20167;-37
2022/04/02 07:39:02;;;;;;;4.68;1.60;;;4.50;99.90;;;;;;5073723;28;20024;-30
2022/04/02 07:41:42;;;;;;;3.42;1.52;;;4.50;99.90;;;;;;5073049;28;20020;-31
2022/04/02 07:44:21;;;;;;;2.38;1.35;;;4.60;99.90;;;;;;5073729;28;20146;-29
2022/04/02 07:46:47;;;;;;;6.03;1.45;;;4.60;99.90;;;;;;5073991;28;20028;-30
2022/04/02 07:49:21;;;;;;;1.60;1.17;;;4.80;99.90;;;;;;5072489;28;20108;-30
2022/04/02 07:51:53;;;;;;;2.00;1.05;;;4.90;99.90;;;;;;5073400;28;20040;-41
2022/04/02 07:54:25;;;;;;;4.93;1.33;;;4.90;99.90;;;;;;5073652;28;20036;-32
2022/04/02 07:57:03;;;;;;;3.85;1.70;;;5.10;99.90;;;;;;5073383;28;20107;-31
2022/04/02 07:59:37;;;;;;;2.08;1.48;;;5.20;99.90;;;;;;5073465;28;20068;-34
2022/04/02 08:02:04;;;;;;;4.07;1.92;;;5.20;99.90;;;;;;5073003;28;20032;-41
2022/04/02 08:04:30;;;;;;;7.32;1.40;;;5.30;99.90;;;;;;5073085;28;20488;-53
2022/04/02 08:06:57;;;;;;;2.38;1.30;;;5.40;99.90;;;;;;5072806;28;20479;-29
2022/04/02 08:09:25;;;;;;;2.53;1.25;;;5.30;99.90;;;;;;5061904;28;20033;-40
2022/04/02 08:11:52;;;;;;;2.35;0.75;;;5.30;99.90;;;;;;5070403;28;20028;-46
2022/04/02 08:14:18;;;;;;;1.90;1.15;;;5.30;99.90;;;;;;5072412;28;20552;-29
2022/04/02 08:16:44;;;;;;;5.95;1.30;;;5.50;99.90;;;;;;5073174;28;20025;-29
2022/04/02 08:19:11;;;;;;;1.60;1.08;;;5.30;99.90;;;;;;5072962;28;20029;-31
2022/04/02 08:21:37;;;;;;;2.25;1.33;;;5.40;99.90;;;;;;5072265;28;20048;-31
2022/04/02 08:24:03;;;;;;;2.08;1.33;;;5.50;99.90;;;;;;5073545;28;20028;-31
2022/04/02 08:26:34;;;;;;;4.10;1.70;;;5.60;99.90;;;;;;5082940;28;20021;-31
2022/04/02 08:29:28;;;;;;;3.85;1.50;;;5.60;99.90;;;;;;5076511;28;20043;-30
2022/04/02 08:32:22;;;;;;;3.63;1.35;;;5.60;99.90;;;;;;5067990;28;20043;-35
2022/04/02 08:35:03;;;;;;;1.67;0.90;;;5.70;99.90;;;;;;5068962;28;20473;-45
2022/04/02 08:37:37;;;;;;;1.98;1.00;;;6.00;99.90;;;;;;5026348;28;20176;-35
2022/04/02 08:40:23;;;;;;;5.32;1.85;;;6.20;99.90;;;;;;5022751;28;20505;-36
2022/04/02 08:43:34;;;;;;;1.88;1.15;;;6.10;99.90;;;;;;5022968;28;20489;-48
2022/04/02 08:46:35;;;;;;;4.13;1.90;;;6.30;99.90;;;;;;5014112;28;20022;-36
2022/04/02 08:49:09;;;;;;;1.83;1.10;;;6.40;99.90;;;;;;5024186;28;20493;-36
2022/04/02 08:51:45;;;;;;;1.65;1.00;;;6.30;99.90;;;;;;5027428;28;20037;-37
2022/04/02 08:54:29;;;;;;;7.95;1.60;;;6.20;99.90;;;;;;5030863;28;20477;-36
2022/04/02 08:57:23;;;;;;;4.88;0.95;;;6.40;99.90;;;;;;5032655;28;20060;-35
2022/04/02 09:00:04;;;;;;;1.88;1.08;;;6.50;99.90;;;;;;4991251;28;20045;-36
2022/04/02 09:02:30;;;;;;;2.85;1.77;;;6.40;99.90;;;;;;5008188;28;20053;-35
2022/04/02 09:05:10;;;;;;;4.20;1.23;;;6.30;99.90;;;;;;5023704;28;20068;-37
2022/04/02 09:08:13;;;;;;;2.13;1.23;;;6.30;99.90;;;;;;5021838;28;20029;-38
2022/04/02 09:11:06;;;;;;;2.55;1.30;;;6.20;99.90;;;;;;5038013;28;20417;-35
2022/04/02 09:13:56;;;;;;;4.65;1.67;;;6.40;99.90;;;;;;5021205;28;20049;-36
2022/04/02 09:16:42;;;;;;;2.75;1.30;;;6.70;99.70;;;;;;5036755;28;20026;-40
2022/04/02 09:19:24;;;;;;;5.38;1.42;;;6.80;99.90;;;;;;4975738;28;20068;-37
2022/04/02 09:22:32;;;;;;;4.18;1.40;;;7.00;99.90;;;;;;5007226;28;20028;-36
2022/04/02 09:25:23;;;;;;;1.27;1.10;;;7.10;98.70;;;;;;5036768;28;20059;-37
2022/04/02 09:28:10;;;;;;;4.68;1.15;;;7.20;98.70;;;;;;5032658;28;20393;-32
2022/04/02 09:30:51;;;;;;;2.08;1.55;;;7.10;97.70;;;;;;5033839;28;20037;-30
2022/04/02 09:33:52;;;;;;;1.77;0.93;;;7.10;99.20;;;;;;5016546;28;20124;-31
2022/04/02 09:36:35;;;;;;;1.83;1.02;;;7.30;98.80;;;;;;5017289;28;20053;-38
2022/04/02 09:39:21;;;;;;;1.85;1.27;;;7.50;98.10;;;;;;5024007;28;20030;-29
2022/04/02 09:41:58;;;;;;;2.22;1.45;;;7.60;97.10;;;;;;5023916;28;20589;-30
2022/04/02 09:44:56;;;;;;;4.78;1.02;;;7.70;98.30;;;;;;5016624;28;20034;-32
2022/04/02 09:47:41;;;;;;;1.33;1.08;;;7.80;97.70;;;;;;5022804;28;20026;-42
2022/04/02 09:50:13;;;;;;;3.75;1.02;;;7.90;97.20;;;;;;5028093;28;20029;-37
2022/04/02 09:53:04;;;;;;;2.50;1.10;;;8.30;97.30;;;;;;5033713;28;20022;-37
2022/04/02 09:55:40;;;;;;;2.75;1.52;;;8.30;98.00;;;;;;5041513;28;20053;-37
2022/04/02 09:58:27;;;;;;;2.33;1.25;;;8.20;96.10;;;;;;5028914;28;20137;-37
2022/04/02 10:01:08;;;;;;;10.82;1.92;;;8.20;96.70;;;;;;5037114;28;20083;-36
2022/04/02 10:03:46;;;;;;;4.20;0.90;;;8.10;96.60;;;;;;5028217;28;20022;-37
2022/04/02 10:06:25;;;;;;;1.27;1.00;;;7.90;94.20;;;;;;5035852;28;20057;-35
2022/04/02 10:09:12;;;;;;;1.80;1.10;;;7.60;95.00;;;;;;5007520;28;20453;-35
2022/04/02 10:11:57;;;;;;;5.50;2.38;;;7.50;95.00;;;;;;5027051;28;20040;-37
2022/04/02 10:14:28;;;;;;;2.72;1.45;;;7.50;96.60;;;;;;5035572;28;20029;-46
2022/04/02 10:17:01;;;;;;;1.25;0.82;;;7.30;96.20;;;;;;5033694;28;20036;-62
2022/04/02 10:19:30;;;;;;;2.15;0.88;;;7.30;96.80;;;;;;5025210;28;20049;-45
2022/04/02 10:22:06;;;;;;;;;;;7.60;98.00;;;;;;5033513;28;20049;-37
2022/04/02 10:24:40;;;;;;;1.70;1.13;;;7.90;96.10;;;;;;5035388;28;19916;-52
2022/04/02 10:27:10;;;;;;;2.00;1.08;;;8.10;96.70;;;;;;5033261;28;20021;-58
2022/04/02 10:30:09;;;;;;;10.05;4.15;;;8.10;96.00;;;;;;5030467;28;20123;-56
2022/04/02 10:35:43;;;;;;;3.45;1.23;;;8.20;95.10;;;;;;5015438;28;20096;-36
2022/04/02 10:38:36;;;;;;;1.67;1.05;;;7.90;95.10;;;;;;5028507;28;20095;-38
2022/04/02 10:41:13;;;;;;;1.38;0.80;;;7.60;96.30;;;;;;5029385;28;20041;-37
2022/04/02 10:43:51;;;;;;;4.38;1.75;;;7.30;96.10;;;;;;5026789;28;20026;-37
2022/04/02 10:46:21;;;;;;;2.15;1.10;;;7.20;96.30;;;;;;5029987;28;20022;-36
2022/04/02 10:49:07;;;;;;;1.58;0.90;;;7.60;97.40;;;;;;5018477;28;20025;-37
2022/04/02 10:51:36;;;;;;;2.08;0.88;;;8.10;95.60;;;;;;5023955;28;20394;-41
2022/04/02 10:54:03;;;;;;;4.25;1.02;;;7.90;94.80;;;;;;5025841;28;20026;-36
2022/04/02 10:56:44;;;;;;;1.08;0.70;;;7.70;95.30;;;;;;5021162;28;20026;-30
2022/04/02 10:59:12;;;;;;;4.45;0.85;;;7.40;95.40;;;;;;5030590;28;20032;-30
2022/04/02 11:01:42;;;;;;;5.95;1.00;;;7.30;96.60;;;;;;5026422;28;20108;-29
2022/04/02 11:04:30;;;;;;;4.43;1.10;;;7.10;96.80;;;;;;5025540;28;20046;-30
2022/04/02 11:06:57;;;;;;;3.60;1.00;;;6.70;97.90;;;;;;5033692;28;20075;-38
2022/04/02 11:09:31;;;;;;;2.08;1.10;;;6.50;98.90;;;;;;5022853;28;20474;-33
2022/04/02 11:12:04;;;;;;;5.45;1.17;;;6.30;99.90;;;;;;5029962;28;20119;-29
2022/04/02 11:14:44;;;;;;;1.00;1.00;;;6.40;99.90;;;;;;5021987;28;20110;-32
2022/04/02 11:17:33;;;;;;;4.55;1.20;;;6.60;99.90;;;;;;5012500;28;20397;-30
2022/04/02 11:20:08;;;;;;;7.03;1.40;;;6.70;99.40;;;;;;5022643;28;20030;-30
2022/04/02 11:23:05;;;;;;;3.03;1.20;;;7.00;98.80;;;;;;5020760;28;20038;-30
2022/04/02 11:25:31;;;;;;;6.23;1.23;;;7.20;98.30;;;;;;5017287;28;20398;-57
2022/04/02 11:28:08;;;;;;;2.33;1.27;;;7.30;98.50;;;;;;5029612;28;20275;-30
2022/04/02 11:30:36;;;;;;;1.83;0.88;;;7.40;97.40;;;;;;5021475;28;20517;-47
2022/04/02 11:33:12;;;;;;;4.15;1.00;;;7.30;96.90;;;;;;5025723;28;20482;-31
2022/04/02 11:35:40;;;;;;;1.25;0.90;;;7.30;96.80;;;;;;5031934;28;20080;-47
2022/04/02 11:38:24;;;;;;;3.58;1.30;;;7.30;97.20;;;;;;5022776;28;20390;-36
2022/04/02 11:40:56;;;;;;;5.13;1.08;;;7.80;99.40;;;;;;5014875;28;20540;-34
2022/04/02 11:43:36;;;;;;;1.20;1.13;;;8.40;96.20;;;;;;5017659;28;20136;-32
2022/04/02 11:46:11;;;;;;;4.20;0.90;;;8.50;96.40;;;;;;5014385;28;20026;-30
2022/04/02 11:48:51;;;;;;;1.00;0.80;;;8.50;95.70;;;;;;5015232;28;20040;-33
2022/04/02 11:51:28;;;;;;;1.63;0.93;;;8.30;96.20;;;;;;5013639;28;20152;-33
2022/04/02 11:54:10;;;;;;;1.05;0.90;;;8.00;96.70;;;;;;5017311;28;20029;-31
2022/04/02 11:56:43;;;;;;;3.30;0.95;;;7.70;95.00;;;;;;5012764;28;20478;-35
2022/04/02 11:59:15;;;;;;;1.25;0.93;;;7.40;95.40;;;;;;5012697;28;20030;-33
2022/04/02 12:01:43;;;;;;;0.98;0.88;;;7.30;96.10;;;;;;5013896;28;20497;-32
2022/04/02 12:04:14;;;;;;;1.73;0.88;;;7.20;95.60;;;;;;5025403;28;20052;-30
2022/04/02 12:06:41;;;;;;;2.72;1.00;;;7.10;96.00;;;;;;5024628;28;20053;-30
2022/04/02 12:09:21;;;;;;;1.73;1.17;;;7.00;96.20;;;;;;5018102;28;20029;-30
2022/04/02 12:11:56;;;;;;;2.55;1.08;;;7.20;96.30;;;;;;5018194;28;20077;-33
2022/04/02 12:14:28;;;;;;;1.38;0.82;;;7.50;96.50;;;;;;5032685;28;20083;-30
2022/04/02 12:17:04;;;;;;;6.97;0.98;;;7.70;97.00;;;;;;5021946;28;20030;-34
2022/04/02 12:19:37;;;;;;;1.90;0.90;;;7.60;96.80;;;;;;5017750;28;20112;-29
2022/04/02 12:22:04;;;;;;;2.80;1.08;;;7.40;96.80;;;;;;5033159;28;20036;-32
2022/04/02 12:24:39;;;;;;;5.68;1.02;;;7.10;97.10;;;;;;5031361;28;20108;-31
2022/04/02 12:27:07;;;;;;;5.78;1.10;;;6.80;98.10;;;;;;5030692;28;20485;-30
2022/04/02 12:29:33;;;;;;;3.05;1.10;;;6.70;98.80;;;;;;5026460;28;20030;-32
2022/04/02 12:32:00;;;;;;;2.80;0.82;;;6.50;98.60;;;;;;5013393;28;20037;-47
2022/04/02 12:34:27;;;;;;;1.20;0.70;;;6.60;98.70;;;;;;5021189;28;20034;-33
2022/04/02 12:37:02;;;;;;;2.42;0.90;;;6.80;98.10;;;;;;5027177;28;20482;-32
2022/04/02 12:39:28;;;;;;;3.00;1.27;;;6.70;98.30;;;;;;5026063;28;20108;-33
2022/04/02 12:41:54;;;;;;;0.75;0.75;;;6.70;98.60;;;;;;5029769;28;20100;-32
2022/04/02 12:44:21;;;;;;;1.60;1.20;;;6.80;98.30;;;;;;5037507;28;20033;-44
2022/04/02 12:46:48;;;;;;;1.97;1.20;;;7.00;98.00;;;;;;5021846;28;20026;-30
2022/04/02 12:49:35;;;;;;;7.45;0.90;;;7.10;98.40;;;;;;5013302;28;20382;-33
2022/04/02 12:52:17;;;;;;;3.50;0.97;;;7.30;97.90;;;;;;5013464;28;20117;-37
2022/04/02 12:54:45;;;;;;;1.58;1.23;;;7.60;97.60;;;;;;4995561;28;20330;-36
2022/04/02 12:57:15;;;;;;;2.40;1.00;;;7.90;98.30;;;;;;4994892;28;20592;-38
2022/04/02 12:59:50;;;;;;;2.38;1.17;;;8.10;99.50;;;;;;5013045;28;20293;-37
2022/04/02 13:02:21;;;;;;;4.20;1.17;;;8.30;99.00;;;;;;5013128;28;20034;-36
2022/04/02 13:04:53;;;;;;;6.55;1.30;;;8.10;97.40;;;;;;5013163;28;20474;-30
2022/04/02 13:07:21;;;;;;;1.88;0.75;;;8.00;97.60;;;;;;5013061;28;20029;-32
2022/04/02 13:09:50;;;;;;;2.47;0.90;;;7.60;97.40;;;;;;4995007;28;20517;-32
2022/04/02 13:12:23;;;;;;;1.52;0.98;;;7.60;96.70;;;;;;5012517;28;20053;-31
2022/04/02 13:15:09;;;;;;;1.02;0.75;;;7.40;96.20;;;;;;5012588;28;20038;-32
2022/04/02 13:20:28;;;;;;;4.35;0.90;;;7.20;97.10;;;;;;5013224;28;20541;-30
2022/04/02 13:20:36;;;;;;;1.40;0.90;;;7.40;96.90;;;;;;5012794;28;20038;-30
2022/04/02 13:23:04;;;;;;;5.88;0.95;;;7.80;96.50;;;;;;5012921;28;20101;-30